Time;durP1;ratioP1;P1;durP2;ratioP2;P2;SDS_P1;SDS_P2;PMS_P1;PMS_P2;Temp;Humidity;BMP_temperature;BMP_pressure;BME280_temperature;BME280_humidity;BME280_pressure;Samples;Min_cycle;Max_cycle;Signal;HPM_P1;HPM_P2
2023/04/23 00:02:12;;;;;;;9.87;6.63;;;;;;;14.79;45.84;100030.47;5044139;28;20102;-84
2023/04/23 00:04:49;;;;;;;11.55;7.38;;;;;;;14.77;45.97;100035.09;5063255;28;20044;-84
2023/04/23 00:07:20;;;;;;;12.38;7.13;;;;;;;14.74;46.36;100024.75;5058675;28;20048;-85
2023/04/23 00:09:51;;;;;;;13.70;7.03;;;;;;;14.71;46.77;100030.28;5042187;28;20072;-84
2023/04/23 00:12:21;;;;;;;10.50;7.60;;;;;;;14.68;46.54;100030.56;5058413;28;20083;-84
2023/04/23 00:14:49;;;;;;;10.68;6.88;;;;;;;14.65;46.68;100029.00;5041640;28;20062;-87
2023/04/23 00:17:20;;;;;;;11.25;7.28;;;;;;;14.63;46.61;100020.38;5072193;28;20044;-86
2023/04/23 00:19:50;;;;;;;9.95;6.72;;;;;;;14.62;46.87;100017.84;5047523;28;20048;-84
2023/04/23 00:22:20;;;;;;;12.90;7.65;;;;;;;14.61;46.84;100009.03;5061553;28;20471;-86
2023/04/23 00:24:55;;;;;;;13.00;7.03;;;;;;;14.59;47.12;100016.31;5063079;28;20140;-85
2023/04/23 00:27:24;;;;;;;12.57;8.07;;;;;;;14.56;47.23;100011.25;5059020;28;20033;-84
2023/04/23 00:29:55;;;;;;;9.25;6.57;;;;;;;14.53;47.27;100010.66;5036547;28;20041;-88
2023/04/23 00:32:26;;;;;;;13.40;7.63;;;;;;;14.51;47.68;100012.63;5060053;28;20378;-84
2023/04/23 00:35:03;;;;;;;14.98;7.70;;;;;;;14.50;47.55;100013.56;5055697;28;20071;-84
2023/04/23 00:37:30;;;;;;;14.25;7.68;;;;;;;14.49;47.64;100011.91;5062081;28;20106;-85
2023/04/23 00:40:03;;;;;;;15.75;7.60;;;;;;;14.50;47.66;100006.50;5059360;28;20041;-85
2023/04/23 00:42:35;;;;;;;10.05;7.07;;;;;;;14.49;48.08;100003.94;5061598;28;20558;-85
2023/04/23 00:45:07;;;;;;;12.40;6.53;;;;;;;14.47;47.78;100003.22;5043238;28;20044;-84
2023/04/23 00:47:36;;;;;;;13.52;7.85;;;;;;;14.46;48.01;100002.38;5063663;28;20086;-85
2023/04/23 00:50:08;;;;;;;12.30;7.25;;;;;;;14.44;48.03;99989.25;5073446;28;20045;-86
2023/04/23 00:52:37;;;;;;;9.07;7.00;;;;;;;14.43;48.40;99995.53;5029300;28;20112;-84
2023/04/23 00:55:12;;;;;;;12.60;7.88;;;;;;;14.41;48.40;99994.00;5060444;28;20059;-83
2023/04/23 00:57:48;;;;;;;10.38;7.20;;;;;;;14.39;48.46;99994.09;5048984;28;20093;-86
2023/04/23 01:00:20;;;;;;;13.70;7.68;;;;;;;14.38;48.64;99987.16;5041712;28;20057;-84
2023/04/23 01:02:52;;;;;;;15.00;8.07;;;;;;;14.36;48.56;99991.75;5076710;28;20215;-85
2023/04/23 01:05:22;;;;;;;12.35;7.63;;;;;;;14.33;48.73;99991.16;5059462;28;20336;-85
2023/04/23 01:08:05;;;;;;;12.38;7.10;;;;;;;14.33;49.06;99981.41;5061403;28;21219;-87
2023/04/23 01:10:34;;;;;;;13.20;7.35;;;;;;;14.30;49.30;99986.09;5073689;28;20056;-88
2023/04/23 01:13:34;;;;;;;10.80;7.45;;;;;;;14.29;49.21;99985.28;5055386;28;20040;-90
2023/04/23 01:16:03;;;;;;;16.48;7.95;;;;;;;14.27;49.82;99989.84;5078638;28;20045;-84
2023/04/23 01:18:31;;;;;;;11.63;8.70;;;;;;;14.27;49.40;99989.00;5047414;28;20439;-86
2023/04/23 01:21:03;;;;;;;12.43;7.30;;;;;;;14.27;49.79;99983.72;5065341;28;20024;-84
2023/04/23 01:23:57;;;;;;;11.75;7.22;;;;;;;14.25;49.76;99983.84;5031841;28;20053;-84
2023/04/23 01:26:26;;;;;;;12.77;7.97;;;;;;;14.27;49.90;99978.41;5044163;28;20090;-85
2023/04/23 01:28:54;;;;;;;12.10;7.63;;;;;;;14.28;49.86;99988.06;5039637;28;20037;-87
2023/04/23 01:31:22;;;;;;;13.15;7.43;;;;;;;14.26;49.97;99984.69;5026443;28;20118;-87
2023/04/23 01:33:50;;;;;;;15.02;7.55;;;;;;;14.26;49.80;99987.34;5075419;28;20127;-84
2023/04/23 01:36:24;;;;;;;14.10;8.38;;;;;;;14.27;50.18;99984.53;5057204;28;20050;-86
2023/04/23 01:38:54;;;;;;;12.50;8.02;;;;;;;14.26;49.95;99982.03;5038628;28;20105;-87
2023/04/23 01:41:28;;;;;;;12.82;7.90;;;;;;;14.26;50.04;99993.47;5041043;28;20056;-85
2023/04/23 01:43:56;;;;;;;12.55;7.13;;;;;;;14.27;50.44;99997.78;5041656;28;20118;-84
2023/04/23 01:46:24;;;;;;;11.88;7.95;;;;;;;14.28;50.31;99988.06;5031007;28;20074;-87
2023/04/23 01:48:57;;;;;;;10.90;7.57;;;;;;;14.29;50.24;99981.78;5041856;28;20098;-86
2023/04/23 01:51:31;;;;;;;14.77;8.60;;;;;;;14.29;50.47;99979.97;5059121;28;20067;-88
2023/04/23 01:54:08;;;;;;;15.52;8.90;;;;;;;14.29;50.50;99979.16;5081479;28;20046;-86
2023/04/23 01:56:41;;;;;;;13.25;8.32;;;;;;;14.29;50.85;99976.50;5050900;28;20040;-87
2023/04/23 01:59:09;;;;;;;11.07;7.68;;;;;;;14.31;50.89;99979.84;5082526;28;20033;-86
2023/04/23 02:02:03;;;;;;;12.98;8.18;;;;;;;14.32;51.16;99981.50;5049237;28;20048;-85
2023/04/23 02:04:31;;;;;;;9.93;7.82;;;;;;;14.30;51.42;99986.94;5043676;28;20047;-88
2023/04/23 02:07:06;;;;;;;13.00;7.72;;;;;;;14.29;51.05;99972.03;5072140;28;20044;-88
2023/04/23 02:09:34;;;;;;;11.48;7.28;;;;;;;14.27;52.22;99960.72;5043284;28;20036;-86
2023/04/23 02:12:07;;;;;;;16.50;8.43;;;;;;;14.30;52.33;99965.75;5066471;28;20215;-84
2023/04/23 02:14:37;;;;;;;14.02;7.88;;;;;;;14.29;52.68;99971.19;5060916;28;20460;-85
2023/04/23 02:17:05;;;;;;;13.10;7.47;;;;;;;14.27;53.17;99963.38;5071467;28;20085;-85
2023/04/23 02:19:37;;;;;;;11.52;7.35;;;;;;;14.27;53.64;99966.00;5058302;28;20132;-85
2023/04/23 02:22:06;;;;;;;10.15;8.27;;;;;;;14.26;55.03;99972.28;5073703;28;20044;-85
2023/04/23 02:24:37;;;;;;;10.45;8.02;;;;;;;14.22;56.41;99962.09;5079243;28;20047;-85
2023/04/23 02:27:09;;;;;;;11.55;7.90;;;;;;;14.14;57.72;99955.66;5045653;28;20530;-85
2023/04/23 02:29:40;;;;;;;14.75;8.18;;;;;;;14.12;58.42;99954.91;5059919;28;20037;-83
2023/04/23 02:32:13;;;;;;;13.73;8.30;;;;;;;14.09;59.56;99970.22;5025732;28;20135;-84
2023/04/23 02:34:46;;;;;;;14.18;8.10;;;;;;;14.08;61.24;99966.72;5041312;28;20036;-85
2023/04/23 02:37:25;;;;;;;14.35;9.45;;;;;;;14.00;62.83;99968.34;5071103;28;20044;-86
2023/04/23 02:39:53;;;;;;;13.40;9.35;;;;;;;13.93;65.21;99971.50;5050104;28;20048;-84
2023/04/23 02:42:26;;;;;;;16.95;10.15;;;;;;;13.87;64.79;99972.03;5079612;28;20108;-85
2023/04/23 02:44:56;;;;;;;15.27;10.50;;;;;;;13.85;65.19;99967.81;5087279;28;20039;-86
2023/04/23 02:47:26;;;;;;;15.43;9.63;;;;;;;13.79;67.95;99963.06;5073470;28;20052;-85
2023/04/23 02:49:56;;;;;;;12.70;9.75;;;;;;;13.72;68.32;99967.16;5059645;28;20040;-85
2023/04/23 02:52:31;;;;;;;12.82;9.63;;;;;;;13.67;68.58;99951.66;5071785;28;20047;-85
2023/04/23 02:55:05;;;;;;;16.30;10.23;;;;;;;13.65;70.03;99958.91;5077389;28;20033;-86
2023/04/23 02:57:37;;;;;;;17.38;10.93;;;;;;;13.62;71.57;99946.75;5057431;28;20040;-88
2023/04/23 03:00:07;;;;;;;13.05;9.00;;;;;;;13.51;73.52;99954.75;5060674;28;20052;-87
2023/04/23 03:33:08;;;;;;;10.85;8.77;;;;;;;13.67;79.14;99949.03;5086733;22;20043;-72
2023/04/23 03:35:35;;;;;;;14.20;9.80;;;;;;;13.70;80.63;99947.94;5056747;28;20056;-73
2023/04/23 03:38:04;;;;;;;15.18;9.68;;;;;;;13.72;81.25;99946.00;5048040;28;20077;-72
2023/04/23 03:40:31;;;;;;;13.10;10.18;;;;;;;13.70;82.31;99943.47;5044284;28;20084;-73
2023/04/23 03:42:58;;;;;;;12.85;10.52;;;;;;;13.71;82.78;99944.31;5036201;28;20077;-73
2023/04/23 03:45:26;;;;;;;16.85;9.85;;;;;;;13.69;81.90;99939.16;5045187;28;20177;-73
2023/04/23 03:47:54;;;;;;;12.35;9.88;;;;;;;13.68;82.26;99934.81;5027622;28;20158;-73
2023/04/23 03:50:21;;;;;;;14.07;10.60;;;;;;;13.65;82.96;99941.22;5050569;28;20060;-73
2023/04/23 03:52:48;;;;;;;15.55;10.15;;;;;;;13.62;82.90;99930.88;5051975;28;20159;-72
2023/04/23 03:55:16;;;;;;;18.33;11.15;;;;;;;13.60;83.89;99927.53;5021767;28;20038;-72
2023/04/23 03:57:43;;;;;;;14.65;11.23;;;;;;;13.60;83.86;99932.84;5039864;28;20122;-72
2023/04/23 04:00:11;;;;;;;15.95;10.40;;;;;;;13.60;84.12;99926.72;5051044;28;20144;-73
2023/04/23 04:02:39;;;;;;;16.60;11.30;;;;;;;13.58;84.18;99923.34;5053406;28;20110;-72
2023/04/23 04:05:08;;;;;;;21.13;11.93;;;;;;;13.60;84.65;99924.06;5047605;28;20143;-73
2023/04/23 04:07:38;;;;;;;12.88;10.55;;;;;;;13.62;84.85;99922.94;5029082;28;20185;-72
2023/04/23 04:10:06;;;;;;;15.45;10.93;;;;;;;13.64;85.04;99921.03;5025875;28;20459;-72
2023/04/23 04:12:33;;;;;;;13.77;10.52;;;;;;;13.64;84.96;99915.75;5025297;28;20117;-70
2023/04/23 04:15:02;;;;;;;13.27;10.23;;;;;;;13.67;84.87;99912.00;5046940;28;20605;-73
2023/04/23 04:17:29;;;;;;;17.55;11.20;;;;;;;13.70;84.79;99918.84;5041849;28;20418;-73
2023/04/23 04:19:56;;;;;;;12.43;9.63;;;;;;;13.71;84.73;99920.50;5050552;28;20049;-73
2023/04/23 04:22:24;;;;;;;16.40;10.30;;;;;;;13.73;85.01;99918.56;5048419;28;20532;-74
2023/04/23 04:24:51;;;;;;;14.18;10.65;;;;;;;13.71;86.05;99918.72;5054267;28;20163;-72
2023/04/23 04:27:18;;;;;;;13.27;10.27;;;;;;;13.74;85.58;99922.91;5049949;28;20037;-73
2023/04/23 04:30:12;;;;;;;12.30;9.65;;;;;;;13.78;86.70;99921.66;5031731;28;21669;-71
2023/04/23 04:32:39;;;;;;;12.15;9.10;;;;;;;13.81;85.70;99924.06;5024806;28;20099;-74
2023/04/23 04:35:07;;;;;;;13.02;8.23;;;;;;;13.86;85.99;99922.69;5023196;28;20560;-73
2023/04/23 04:37:35;;;;;;;11.77;8.23;;;;;;;13.92;85.42;99918.72;5044666;28;20056;-72
2023/04/23 04:40:03;;;;;;;11.68;8.00;;;;;;;14.01;85.20;99925.06;5048161;28;20091;-71
2023/04/23 04:42:30;;;;;;;15.45;7.65;;;;;;;14.06;84.84;99930.78;4995071;28;20045;-72
2023/04/23 04:44:58;;;;;;;10.98;7.85;;;;;;;14.12;84.51;99944.34;5028536;28;20176;-72
2023/04/23 04:47:26;;;;;;;10.13;7.82;;;;;;;14.17;84.44;99942.13;5016781;28;20041;-73
2023/04/23 04:49:56;;;;;;;11.50;8.23;;;;;;;14.23;84.46;99939.94;5045542;28;20084;-73
2023/04/23 04:52:23;;;;;;;10.93;8.07;;;;;;;14.26;84.28;99945.81;5047611;28;20073;-73
2023/04/23 04:54:51;;;;;;;16.98;8.45;;;;;;;14.28;84.59;99940.41;5045235;28;20256;-73
2023/04/23 04:57:21;;;;;;;11.82;9.07;;;;;;;14.29;84.77;99939.44;5022429;28;20128;-74
2023/04/23 04:59:49;;;;;;;15.32;9.88;;;;;;;14.27;86.61;99941.34;5027100;28;20065;-71
2023/04/23 05:02:16;;;;;;;14.07;9.45;;;;;;;14.18;86.53;99935.91;5049659;28;20053;-72
2023/04/23 05:04:44;;;;;;;11.10;8.75;;;;;;;14.22;86.62;99943.56;5008475;28;20144;-73
2023/04/23 05:07:11;;;;;;;11.32;8.07;;;;;;;14.24;86.41;99945.13;5032038;28;20131;-73
2023/04/23 05:09:39;;;;;;;11.15;8.30;;;;;;;14.25;86.42;99948.59;5049542;28;20682;-73
2023/04/23 05:12:11;;;;;;;14.90;8.60;;;;;;;14.31;86.77;99953.38;5008136;28;20335;-72
2023/04/23 05:14:38;;;;;;;12.50;7.45;;;;;;;14.37;86.58;99952.84;5026596;28;20061;-74
2023/04/23 05:17:06;;;;;;;11.95;8.15;;;;;;;14.42;87.12;99955.94;5033385;28;20077;-73
2023/04/23 05:19:33;;;;;;;10.30;8.00;;;;;;;14.44;87.88;99951.34;5046425;28;20181;-73
2023/04/23 05:22:02;;;;;;;11.45;8.35;;;;;;;14.46;88.10;99944.13;5006972;28;20316;-73
2023/04/23 05:24:29;;;;;;;11.63;7.63;;;;;;;14.50;87.66;99944.72;5022573;28;20147;-73
2023/04/23 05:26:57;;;;;;;8.73;6.90;;;;;;;14.58;87.13;99951.03;5055019;28;20108;-74
2023/04/23 05:29:24;;;;;;;8.45;7.57;;;;;;;14.59;87.45;99949.22;5018586;28;20569;-72
2023/04/23 05:31:51;;;;;;;12.70;8.10;;;;;;;14.55;88.11;99951.31;5026349;28;20080;-74
2023/04/23 05:34:19;;;;;;;12.60;8.15;;;;;;;14.59;87.78;99943.91;5033158;28;20081;-73
2023/04/23 05:36:46;;;;;;;10.38;8.07;;;;;;;14.62;87.54;99944.50;5021949;28;20494;-73
2023/04/23 05:39:13;;;;;;;8.95;7.72;;;;;;;14.61;88.01;99956.06;5031828;28;20610;-71
2023/04/23 05:41:40;;;;;;;11.57;7.53;;;;;;;14.60;88.42;99953.56;5013031;28;20068;-74
2023/04/23 05:44:08;;;;;;;8.77;6.72;;;;;;;14.60;88.19;99964.16;5055789;28;20469;-74
2023/04/23 05:46:36;;;;;;;10.52;6.88;;;;;;;14.56;88.19;99966.22;5026957;28;20099;-74
2023/04/23 05:49:03;;;;;;;10.82;7.47;;;;;;;14.58;88.73;99966.91;5046782;28;20457;-73
2023/04/23 05:51:30;;;;;;;11.63;6.63;;;;;;;14.59;88.72;99963.31;5052139;28;20191;-72
2023/04/23 05:53:59;;;;;;;10.15;6.88;;;;;;;14.66;88.19;99955.66;5029644;28;20048;-74
2023/04/23 05:56:26;;;;;;;12.52;7.40;;;;;;;14.75;88.05;99961.97;5046177;28;20527;-73
2023/04/23 05:58:53;;;;;;;12.43;7.68;;;;;;;14.76;88.89;99963.66;5021111;28;20167;-73
2023/04/23 06:01:21;;;;;;;11.35;7.18;;;;;;;14.75;88.93;99961.97;5011007;28;20057;-72
2023/04/23 06:03:48;;;;;;;9.95;6.93;;;;;;;14.79;88.82;99956.28;5050217;28;20136;-72
2023/04/23 06:06:16;;;;;;;10.02;7.25;;;;;;;14.81;88.76;99956.13;5050518;28;20132;-72
2023/04/23 06:08:43;;;;;;;11.10;6.35;;;;;;;14.92;88.83;99961.34;5039008;28;20285;-72
2023/04/23 06:11:10;;;;;;;11.05;6.65;;;;;;;14.98;88.61;99965.28;5022669;28;20061;-71
2023/04/23 06:13:39;;;;;;;7.85;6.13;;;;;;;14.97;88.31;99959.13;5020387;28;20053;-74
2023/04/23 06:16:09;;;;;;;8.88;5.82;;;;;;;15.00;87.63;99968.66;5004847;28;20132;-73
2023/04/23 06:18:38;;;;;;;7.68;5.28;;;;;;;15.05;87.30;99959.31;5042237;28;20052;-73
2023/04/23 06:21:05;;;;;;;7.50;5.43;;;;;;;15.10;87.90;99970.34;5026337;28;20059;-73
2023/04/23 06:23:33;;;;;;;7.53;5.25;;;;;;;15.02;87.50;99969.34;5016163;28;20124;-73
2023/04/23 06:26:03;;;;;;;5.35;4.75;;;;;;;15.01;87.78;99963.19;5024152;28;20476;-73
2023/04/23 06:28:30;;;;;;;12.32;5.60;;;;;;;14.99;87.86;99965.13;5042991;28;20053;-73
2023/04/23 06:30:58;;;;;;;7.47;5.70;;;;;;;15.00;87.78;99968.66;5015171;28;20068;-73
2023/04/23 06:33:25;;;;;;;10.82;5.65;;;;;;;15.04;88.29;99962.94;4997143;28;20056;-73
2023/04/23 06:35:52;;;;;;;11.45;4.97;;;;;;;15.05;88.40;99964.59;5036667;28;20057;-74
2023/04/23 06:38:21;;;;;;;15.68;5.22;;;;;;;15.06;88.60;99968.09;5014760;28;20048;-73
2023/04/23 06:40:49;;;;;;;8.82;5.88;;;;;;;15.10;88.49;99956.25;5029826;28;20045;-73
2023/04/23 06:43:16;;;;;;;9.25;5.35;;;;;;;15.14;88.40;99963.78;4998793;28;20128;-73
2023/04/23 06:45:43;;;;;;;7.60;4.65;;;;;;;15.14;88.25;99961.16;5031917;28;20163;-72
2023/04/23 06:48:11;;;;;;;7.80;4.95;;;;;;;15.18;88.37;99969.66;5002810;28;20067;-74
2023/04/23 06:50:39;;;;;;;6.43;4.90;;;;;;;15.16;88.03;99963.66;5014034;28;20486;-72
2023/04/23 06:53:06;;;;;;;9.27;5.78;;;;;;;15.12;88.54;99971.03;5012126;28;20069;-72
2023/04/23 06:55:33;;;;;;;9.52;5.45;;;;;;;14.95;88.68;99966.41;5010629;28;20073;-72
2023/04/23 07:01:39;;;;;;;8.25;4.68;;;;;;;14.98;88.73;99970.56;5014486;28;20041;-74
2023/04/23 07:04:07;;;;;;;8.43;4.55;;;;;;;14.95;88.99;99971.69;4998174;28;20044;-73
2023/04/23 07:06:34;;;;;;;6.63;4.15;;;;;;;14.86;90.01;99972.47;5034107;28;20516;-74
2023/04/23 07:09:01;;;;;;;5.70;4.43;;;;;;;14.79;91.07;99979.28;5031231;28;20071;-73
2023/04/23 07:11:30;;;;;;;6.43;4.07;;;;;;;14.65;93.01;99977.84;4989945;28;20128;-74
2023/04/23 07:13:58;;;;;;;7.90;4.63;;;;;;;14.62;93.48;99989.53;5013671;28;20063;-74
2023/04/23 07:16:28;;;;;;;7.20;4.80;;;;;;;14.58;94.05;99984.63;5013953;28;20153;-73
2023/04/23 07:18:55;;;;;;;6.18;4.90;;;;;;;14.46;96.97;99998.91;5001013;28;20105;-73
2023/04/23 07:21:26;;;;;;;9.65;5.38;;;;;;;14.29;97.88;99984.44;5019293;28;20045;-73
2023/04/23 07:23:55;;;;;;;7.18;5.28;;;;;;;14.26;99.10;99992.63;5032225;28;20110;-73
2023/04/23 07:26:23;;;;;;;7.82;4.70;;;;;;;14.15;100.00;99997.03;5037065;28;20141;-73
2023/04/23 07:28:50;;;;;;;7.28;5.18;;;;;;;14.00;100.00;99990.34;5021520;28;20055;-73
2023/04/23 07:31:19;;;;;;;8.63;5.82;;;;;;;13.92;100.00;99991.00;5034514;28;20137;-73
2023/04/23 07:33:47;;;;;;;6.07;5.47;;;;;;;13.89;100.00;99990.41;5019593;28;20075;-73
2023/04/23 07:36:14;;;;;;;7.85;4.97;;;;;;;13.93;100.00;100003.25;5006725;28;20049;-73
2023/04/23 07:38:41;;;;;;;8.48;5.70;;;;;;;13.88;100.00;100004.63;5027459;28;20081;-74
2023/04/23 07:41:08;;;;;;;8.15;5.82;;;;;;;13.78;100.00;99995.75;5020505;28;20049;-74
2023/04/23 07:43:36;;;;;;;6.68;5.57;;;;;;;13.78;100.00;99993.97;5051403;28;20072;-73
2023/04/23 07:46:04;;;;;;;11.10;5.10;;;;;;;13.79;100.00;99995.63;5026103;28;20093;-74
2023/04/23 07:48:33;;;;;;;8.68;6.53;;;;;;;13.84;100.00;99998.72;5022509;28;20048;-73
2023/04/23 07:51:01;;;;;;;9.82;7.28;;;;;;;13.85;100.00;100000.41;5040337;28;20053;-73
2023/04/23 07:53:28;;;;;;;9.10;6.53;;;;;;;13.90;100.00;100002.66;5017068;28;20585;-73
2023/04/23 07:55:56;;;;;;;6.85;5.22;;;;;;;13.92;100.00;100000.75;5022239;28;20052;-73
2023/04/23 07:58:24;;;;;;;9.05;6.43;;;;;;;13.96;100.00;99996.03;5052635;28;20102;-73
2023/04/23 08:00:51;;;;;;;8.73;6.25;;;;;;;14.02;100.00;100001.66;5020928;28;20053;-73
2023/04/23 08:03:19;;;;;;;10.68;6.80;;;;;;;14.07;100.00;100007.41;5007742;28;20045;-73
2023/04/23 08:05:46;;;;;;;7.03;5.75;;;;;;;14.07;100.00;100001.28;5014034;28;20063;-73
2023/04/23 08:08:14;;;;;;;9.15;5.72;;;;;;;14.01;100.00;100007.09;5007460;28;20347;-73
2023/04/23 08:10:41;;;;;;;13.60;6.53;;;;;;;14.04;100.00;100009.47;5030362;28;20080;-73
2023/04/23 08:13:08;;;;;;;7.15;5.72;;;;;;;14.01;100.00;100007.94;5019689;28;20040;-73
2023/04/23 08:15:36;;;;;;;11.57;6.07;;;;;;;14.05;100.00;100009.34;5023148;28;20416;-74
2023/04/23 08:18:04;;;;;;;10.88;6.45;;;;;;;14.13;100.00;100006.06;5009633;28;20473;-74
2023/04/23 08:20:31;;;;;;;9.68;5.97;;;;;;;14.10;100.00;100012.47;5008847;28;20052;-75
2023/04/23 08:22:58;;;;;;;6.63;5.70;;;;;;;14.13;100.00;100011.34;5031853;28;20045;-74
2023/04/23 08:25:26;;;;;;;10.80;6.97;;;;;;;14.21;100.00;100003.59;5023429;28;20133;-75
2023/04/23 08:27:53;;;;;;;8.65;5.93;;;;;;;14.31;100.00;100001.03;5026260;28;20164;-74
2023/04/23 08:30:21;;;;;;;11.90;6.18;;;;;;;14.48;100.00;99992.53;5024215;28;20084;-73
2023/04/23 08:32:52;;;;;;;8.88;6.53;;;;;;;14.51;100.00;100000.22;5036878;28;20152;-71
2023/04/23 08:35:30;;;;;;;7.63;5.90;;;;;;;14.59;100.00;100004.84;5003647;28;20648;-72
2023/04/23 08:37:58;;;;;;;12.55;7.25;;;;;;;14.76;100.00;100006.03;5042930;28;20139;-72
2023/04/23 08:40:29;;;;;;;9.32;6.78;;;;;;;15.00;100.00;100008.41;5045041;28;20059;-75
2023/04/23 08:43:01;;;;;;;8.82;6.70;;;;;;;15.18;100.00;100006.78;5049004;28;20049;-73
2023/04/23 08:45:30;;;;;;;8.65;6.88;;;;;;;15.23;100.00;100001.91;5048328;28;20076;-73
2023/04/23 08:47:59;;;;;;;9.60;7.45;;;;;;;15.37;100.00;100000.69;5030756;28;20064;-72
2023/04/23 08:50:29;;;;;;;7.53;5.30;;;;;;;15.53;100.00;100003.63;5034709;28;20056;-72
2023/04/23 08:52:58;;;;;;;11.25;6.20;;;;;;;15.73;100.00;100001.91;5054172;28;20053;-73
2023/04/23 08:55:26;;;;;;;8.40;6.28;;;;;;;15.90;100.00;100008.34;5049288;28;20071;-73
2023/04/23 08:57:54;;;;;;;8.02;6.72;;;;;;;15.98;99.14;99999.66;5023404;28;20121;-72
2023/04/23 09:00:22;;;;;;;10.82;6.50;;;;;;;16.12;99.60;100001.88;5008433;28;20144;-72
2023/04/23 09:02:50;;;;;;;8.38;6.45;;;;;;;15.90;97.83;100011.00;5045786;28;20053;-72
2023/04/23 09:05:17;;;;;;;8.10;6.30;;;;;;;15.63;98.65;100009.81;5025563;28;20057;-72
2023/04/23 09:07:45;;;;;;;9.75;8.02;;;;;;;15.26;100.00;100008.75;5028157;28;20155;-72
2023/04/23 09:10:13;;;;;;;10.00;6.93;;;;;;;15.05;100.00;100011.47;5042929;28;20483;-72
2023/04/23 09:12:45;;;;;;;14.45;7.07;;;;;;;14.73;100.00;100011.63;5042683;28;20076;-72
2023/04/23 09:15:12;;;;;;;9.60;6.85;;;;;;;14.66;100.00;100013.94;5041164;28;20132;-72
2023/04/23 09:17:45;;;;;;;8.70;7.32;;;;;;;14.62;100.00;100015.19;5028090;28;20071;-72
2023/04/23 09:20:13;;;;;;;8.52;7.55;;;;;;;14.54;100.00;100009.69;5022208;28;20069;-70
2023/04/23 09:22:40;;;;;;;9.75;7.82;;;;;;;14.59;100.00;100011.00;5024606;28;20145;-72
2023/04/23 09:25:13;;;;;;;9.32;7.75;;;;;;;14.48;100.00;100020.78;5043146;28;20063;-73
2023/04/23 09:27:40;;;;;;;10.23;7.18;;;;;;;14.29;100.00;100025.00;5024756;28;20071;-73
2023/04/23 09:30:09;;;;;;;7.80;6.50;;;;;;;14.26;100.00;100024.41;5004874;28;20243;-72
2023/04/23 09:32:39;;;;;;;6.60;5.95;;;;;;;14.09;100.00;100025.78;5018728;28;20214;-72
2023/04/23 09:35:12;;;;;;;7.63;6.25;;;;;;;13.98;100.00;100034.63;5018766;28;20057;-72
2023/04/23 09:37:41;;;;;;;8.55;6.15;;;;;;;13.94;100.00;100030.56;5023175;28;20049;-72
2023/04/23 09:40:12;;;;;;;7.32;5.65;;;;;;;13.93;100.00;100035.03;5025466;28;20098;-73
2023/04/23 09:42:40;;;;;;;8.15;6.30;;;;;;;13.86;100.00;100039.13;5031511;28;20037;-73
2023/04/23 09:45:11;;;;;;;6.80;4.60;;;;;;;13.71;100.00;100036.91;5021638;28;20080;-72
2023/04/23 09:47:48;;;;;;;5.35;4.10;;;;;;;13.56;100.00;100045.13;5049685;28;20045;-72
2023/04/23 09:50:15;;;;;;;5.78;4.05;;;;;;;13.56;100.00;100045.13;5045722;28;20096;-72
2023/04/23 09:52:43;;;;;;;3.45;3.00;;;;;;;13.43;100.00;100044.41;5047636;28;20056;-72
2023/04/23 09:55:11;;;;;;;5.07;3.65;;;;;;;13.41;100.00;100046.34;4992874;28;20556;-74
2023/04/23 09:57:45;;;;;;;3.55;3.13;;;;;;;13.40;100.00;100047.31;5015637;28;20128;-74
2023/04/23 10:00:28;;;;;;;6.13;2.80;;;;;;;13.33;100.00;100056.69;5032737;28;20055;-73
2023/04/23 10:02:55;;;;;;;5.28;3.17;;;;;;;13.21;100.00;100052.34;5022435;28;20063;-75
2023/04/23 10:05:23;;;;;;;3.78;3.10;;;;;;;13.25;100.00;100051.19;5027688;28;20140;-74
2023/04/23 10:08:00;;;;;;;4.20;3.20;;;;;;;13.22;100.00;100056.66;5027533;28;20052;-73
2023/04/23 10:10:27;;;;;;;4.57;4.03;;;;;;;13.30;100.00;100062.22;5042763;28;20041;-74
2023/04/23 10:12:55;;;;;;;5.47;3.75;;;;;;;13.32;100.00;100063.75;5038967;28;20053;-74
2023/04/23 10:15:25;;;;;;;4.95;3.72;;;;;;;13.18;100.00;100070.09;5026644;28;20139;-74
2023/04/23 10:17:54;;;;;;;5.90;4.05;;;;;;;13.13;100.00;100063.50;5028112;28;20156;-74
2023/04/23 10:20:22;;;;;;;5.22;4.50;;;;;;;13.16;100.00;100074.69;5043487;28;20073;-74
2023/04/23 10:22:52;;;;;;;4.35;3.95;;;;;;;13.25;100.00;100081.09;5020019;28;20140;-74
2023/04/23 10:25:20;;;;;;;4.22;3.03;;;;;;;13.29;100.00;100073.75;5007963;28;20204;-75
2023/04/23 10:27:48;;;;;;;5.03;3.30;;;;;;;13.25;100.00;100080.25;5010234;28;20501;-74
2023/04/23 10:30:21;;;;;;;3.72;3.20;;;;;;;13.35;100.00;100094.41;5002558;28;20168;-72
2023/04/23 10:32:49;;;;;;;3.33;2.80;;;;;;;13.34;100.00;100082.16;4997102;28;21977;-73
2023/04/23 10:35:17;;;;;;;3.38;2.92;;;;;;;13.52;100.00;100079.88;5028368;28;20065;-73
2023/04/23 10:37:46;;;;;;;4.20;3.80;;;;;;;13.52;100.00;100080.69;5042524;28;20095;-74
2023/04/23 10:40:18;;;;;;;4.35;3.72;;;;;;;13.64;100.00;100076.22;5004420;28;20477;-74
2023/04/23 10:42:46;;;;;;;4.63;3.70;;;;;;;13.97;100.00;100066.53;5021810;28;20049;-73
2023/04/23 10:45:15;;;;;;;4.15;3.75;;;;;;;14.22;98.25;100066.16;5011329;28;20508;-75
2023/04/23 10:47:46;;;;;;;5.25;4.68;;;;;;;14.54;96.82;100063.50;5011706;28;20147;-74
2023/04/23 10:50:21;;;;;;;5.95;4.43;;;;;;;14.64;97.84;100067.06;5008078;28;20120;-74
2023/04/23 10:52:52;;;;;;;4.78;4.38;;;;;;;14.82;96.98;100064.66;5033702;28;20840;-75
2023/04/23 10:55:22;;;;;;;4.80;4.30;;;;;;;15.20;96.10;100058.69;5008132;28;20120;-75
2023/04/23 10:58:02;;;;;;;6.00;5.00;;;;;;;15.37;92.38;100056.38;5033627;28;20053;-75
2023/04/23 11:00:42;;;;;;;6.05;5.20;;;;;;;15.52;87.75;100062.97;5022804;28;20130;-74
2023/04/23 11:03:34;;;;;;;6.78;5.60;;;;;;;15.70;86.41;100060.53;5020141;28;20076;-73
2023/04/23 11:06:05;;;;;;;8.27;5.85;;;;;;;15.79;85.23;100072.16;5034284;28;20086;-74
2023/04/23 11:08:36;;;;;;;6.65;5.88;;;;;;;15.51;83.83;100071.91;5026993;28;20156;-74
2023/04/23 11:11:07;;;;;;;7.00;5.95;;;;;;;15.52;81.98;100068.28;5014409;28;20137;-73
2023/04/23 11:13:35;;;;;;;7.00;6.20;;;;;;;15.60;81.05;100072.91;5028442;28;20140;-75
2023/04/23 11:16:25;;;;;;;6.85;6.18;;;;;;;15.25;82.95;100076.03;5033770;28;20510;-74
2023/04/23 11:19:02;;;;;;;7.20;6.30;;;;;;;15.20;82.95;100079.91;5030091;28;20147;-74
2023/04/23 11:21:58;;;;;;;7.85;6.95;;;;;;;15.37;82.17;100077.59;4996773;28;21127;-75
2023/04/23 11:24:41;;;;;;;10.48;7.78;;;;;;;15.36;81.31;100084.72;5023103;28;20087;-74
2023/04/23 11:27:12;;;;;;;11.52;8.60;;;;;;;15.15;80.79;100078.63;5012066;28;20417;-74
2023/04/23 11:29:42;;;;;;;8.52;7.72;;;;;;;15.25;81.22;100065.41;5026950;28;20057;-73
2023/04/23 11:32:12;;;;;;;9.10;7.25;;;;;;;15.42;80.78;100059.47;5016557;28;20120;-75
2023/04/23 11:34:42;;;;;;;9.50;8.35;;;;;;;15.62;77.58;100065.66;5017330;28;20036;-75
2023/04/23 11:37:10;;;;;;;10.82;8.45;;;;;;;15.89;78.48;100070.34;5018745;28;20900;-75
2023/04/23 11:39:40;;;;;;;8.80;7.28;;;;;;;16.15;77.65;100078.59;5013415;28;20465;-75
2023/04/23 11:42:15;;;;;;;8.73;7.80;;;;;;;16.18;76.14;100073.88;5019974;28;20108;-74
2023/04/23 11:44:44;;;;;;;9.45;7.63;;;;;;;16.27;75.97;100081.97;5025414;28;20132;-74
2023/04/23 11:47:13;;;;;;;10.20;8.50;;;;;;;15.93;76.63;100082.38;5011556;28;20045;-74
2023/04/23 11:49:42;;;;;;;8.85;7.88;;;;;;;16.10;75.69;100083.50;5014588;28;20188;-74
2023/04/23 11:52:11;;;;;;;7.88;6.80;;;;;;;15.97;75.76;100077.63;5029368;28;20079;-74
2023/04/23 11:54:40;;;;;;;8.77;7.88;;;;;;;16.22;75.96;100073.59;4992692;28;20061;-74
2023/04/23 11:57:07;;;;;;;8.00;6.95;;;;;;;16.63;75.79;100069.78;5033026;28;20059;-73
2023/04/23 11:59:34;;;;;;;8.35;7.03;;;;;;;17.26;74.05;100067.38;5025471;28;20047;-73
2023/04/23 12:02:02;;;;;;;9.73;7.10;;;;;;;17.69;72.26;100074.69;5045724;28;20053;-72
2023/04/23 12:04:30;;;;;;;6.95;6.13;;;;;;;17.99;71.84;100075.38;5031617;28;20070;-71
2023/04/23 12:06:58;;;;;;;7.95;6.63;;;;;;;18.40;70.12;100070.41;5032746;28;20045;-73
2023/04/23 12:09:28;;;;;;;7.38;6.57;;;;;;;18.38;67.63;100073.22;5012717;28;20056;-74